Terminal Aerodrome Forecast
Issued by NWS Mt. Holly, NJ

Home | Current Version | Previous Version | Text Only | Print | Product List | Glossary On
Versions: 1 2 3 4 5 6 7 8 9 10 11 12 13 14 15 16 17
405
FTUS41 KPHI 261729
TAFABE
TAF
KABE 261729Z 2618/2718 26009KT P6SM BKN070
     FM270300 VRB03KT P6SM SCT070
     FM271500 25009KT P6SM BKN150=

USA.gov is the U.S. government's official web portal to all federal, state and local government web resources and services.